Milwaukee, North Carolina
Current Conditions -  °F | °C
As of 4:15 PM on Thursday 20 Nov 2014 (Local Time) from KASJ Reporting Station
Clear Clear  
Wind Chill: 52°   Ceiling: Unl
Heat Index: 52°   Visibility: 10mi
Dew Point: 28°   Wind: 0mph
Humidity: 40%   Direction: NA
Pressure: 30.01"   Gusts: NA
Location:  36.41°N, 77.23°W
Report Text: KASJ 202115Z AUTO 00000KT 10SM CLR 11/M02 A3001 RMK AO2 T01131020
Loading
Personal Weather Stations






























Interactive Weather Map New forecast layout! Learn more

10-Day Weather Forecast

Advertisements
Track Severe Weather on mobile